• Join FlightAware (Why Join?)
  • Login
  • US Flag 
11:32PM EST


 

Airport Tracker/Info


-or-


 

Live Flight TrackerFlight Track Log ✈ N6711L ✈ 09-May-2014 ✈ KAPF - KEYW

Flight Track Log - Related Links

Times and Time Zones

All times are in EDT time to prevent confusion due to time zone crossing. See the N6711L flight status page for this flight to view local times or setup timezone preferences in your user account.

Time Position Orientation Groundspeed Altitude Reporting Facility
EDT Latitude Longitude Course Direction KTS MPH feet Rate Location/Type
10:07AM 26.1603 -81.7536 180° South 140 161 900  Level Miami Center
10:09AM 26.0860 -81.7586 183° South  Level FlightAware Approximate
10:11AM 25.9064 -81.7667 180° South  Level FlightAware Approximate
10:12AM 25.8658 -81.7667 180° South  Level FlightAware Approximate
10:16AM 25.8018 -81.7588 180° South  Level Estimated
10:17AM 25.7612 -81.7588 179° South  Level Estimated
10:18AM 25.7206 -81.7584 179° South  Level FlightAware Approximate
10:19AM 25.6801 -81.7579 179° South  Level FlightAware Approximate
10:20AM 25.6395 -81.7575 179° South  Level FlightAware Approximate
10:21AM 25.5989 -81.7570 179° South  Level FlightAware Approximate
10:22AM 25.5583 -81.7566 179° South  Level FlightAware Approximate
10:23AM 25.5177 -81.7561 179° South  Level FlightAware Approximate
10:24AM 25.4771 -81.7557 179° South  Level FlightAware Approximate
10:25AM 25.4365 -81.7552 179° South  Level FlightAware Approximate
10:26AM 25.3959 -81.7548 179° South  Level FlightAware Approximate
10:27AM 25.3553 -81.7543 179° South  Level FlightAware Approximate
10:28AM 25.3147 -81.7539 179° South  Level FlightAware Approximate
10:29AM 25.2741 -81.7534 179° South  Level FlightAware Approximate
10:30AM 25.2335 -81.7530 179° South  Level FlightAware Approximate
10:31AM 25.1930 -81.7525 179° South  Level FlightAware Approximate
10:32AM 25.1524 -81.7521 179° South  Level FlightAware Approximate
10:33AM 25.1118 -81.7516 179° South  Level FlightAware Approximate
10:34AM 25.0712 -81.7512 179° South  Level FlightAware Approximate
10:35AM 25.0306 -81.7507 179° South  Level FlightAware Approximate
10:36AM 24.9900 -81.7503 179° South  Level FlightAware Approximate
10:37AM 24.9494 -81.7511 180° South  Level Estimated
10:38AM 24.9088 -81.7520 180° South  Level Estimated
10:39AM 24.8682 -81.7529 180° South  Level Estimated
10:40AM 24.8277 -81.7524 179° South  Level FlightAware Approximate
10:41AM 24.7871 -81.7519 179° South  Level FlightAware Approximate
10:42AM 24.7465 -81.7514 179° South  Level FlightAware Approximate
10:43AM 24.7059 -81.7509 179° South  Level FlightAware Approximate
10:44AM 24.6653 -81.7504 179° South  Level FlightAware Approximate
10:45AM 24.6248 -81.7538 180° South  Level Estimated
10:46AM 24.5843 -81.7517 177° South  Level FlightAware Approximate
10:47AM 24.5500 -81.7500 180° South  Level FlightAware Approximate
10:48AM 24.5561 -81.7596 North  Level Estimated
10:49AM 24.5561 -81.7596 125° Southeast  Level Estimated
10:50AM 24.5561 -81.7596 180° South  Level Estimated
10:51AM 24.5561 -81.7596 125° Southeast  Level Estimated
10:52AM 24.5561 -81.7596 125° Southeast  Level Estimated
10:53AM 24.5561 -81.7596 180° South  Level Estimated
10:54AM 24.5561 -81.7596 125° Southeast  Level Estimated
10:55AM 24.5561 -81.7596 125° Southeast  Level Estimated
10:56AM 24.5561 -81.7596 180° South  Level Estimated
10:57AM 24.5561 -81.7596 125° Southeast  Level Estimated
10:58AM 24.5561 -81.7596 125° Southeast  Level Estimated
10:59AM 24.5561 -81.7596 180° South  Level Estimated
11:00AM 24.5561 -81.7596 125° Southeast  Level Estimated